logo
Search for airport 
image banner adimage banner adimage banner ad
image banner ad

YDIAM - Diamantina Lakes

Located in Diamantina Lakes, Australia

ICAO - , IATA -

Data provided by Airmate  

General information

Coordinates: S23°45'42" E141°8'41"
Elevation is 350 feet MSL.
Magnetic variation is 7° East
View others Airports in Queensland

Operational data

Special qualification required
Current time UTC:
Current local time:
Weather at : - ( 0 km )
METAR: CYZH 162007Z AUTO 35006KT 290V030 4SM HZ CLR 25/17 A2997 RMK SLP148 DENSITY ALT 3500FT
View NOTAMs / SUP AIP / TFR affecting this airport [VIEW]
Communications frequencies: [VIEW]

Runways:

RWY identifierQFULength (ft)Width (ft)SurfaceLDA (ft)
0670°369963DIRT
24250°369963DIRT

Airport contact information

Address: Diamantina Lakes Australia

Satellite view of YDIAM